createdAt,value
2018-09-12T00:00:48.183Z,95.70
2018-09-12T00:01:48.165Z,95.19
2018-09-12T00:02:48.201Z,95.49
2018-09-12T00:03:48.150Z,95.79
2018-09-12T00:04:48.125Z,95.90
2018-09-12T00:05:48.134Z,95.70
2018-09-12T00:06:48.109Z,95.39
2018-09-12T00:07:48.144Z,95.70
2018-09-12T00:08:48.104Z,96.20
2018-09-12T00:09:48.077Z,95.03
2018-09-12T00:10:48.061Z,95.29
2018-09-12T00:11:48.051Z,95.79
2018-09-12T00:12:48.069Z,95.79
2018-09-12T00:13:48.071Z,95.90
2018-09-12T00:14:48.034Z,95.39
2018-09-12T00:15:48.009Z,95.94
2018-09-12T00:16:47.993Z,95.79
2018-09-12T00:17:47.996Z,95.70
2018-09-12T00:18:48.026Z,95.70
2018-09-12T00:19:47.972Z,95.90
2018-09-12T00:20:47.965Z,95.43
2018-09-12T00:21:47.950Z,95.90
2018-09-12T00:22:47.936Z,95.84
2018-09-12T00:23:47.960Z,95.39
2018-09-12T00:24:47.918Z,96.10
2018-09-12T00:25:47.908Z,95.79
2018-09-12T00:26:47.900Z,95.74
2018-09-12T00:27:47.880Z,95.19
2018-09-12T00:28:47.937Z,96.25
2018-09-12T00:29:47.858Z,96.20
2018-09-12T00:30:47.852Z,96.14
2018-09-12T00:31:47.835Z,95.94
2018-09-12T00:32:47.830Z,96.04
2018-09-12T00:33:47.846Z,96.25
2018-09-12T00:34:47.822Z,95.94
2018-09-12T00:35:47.785Z,96.34
2018-09-12T00:36:47.782Z,96.34
2018-09-12T00:37:47.767Z,96.34
2018-09-12T00:38:47.748Z,96.04
2018-09-12T00:39:47.769Z,96.45
2018-09-12T00:40:47.738Z,96.65
2018-09-12T00:41:47.720Z,96.85
2018-09-12T00:42:47.724Z,96.95
2018-09-12T00:43:47.697Z,97.36
2018-09-12T00:44:47.739Z,96.55
2018-09-12T00:45:47.677Z,97.25
2018-09-12T00:46:47.660Z,96.75
2018-09-12T00:47:47.654Z,96.95
2018-09-12T00:48:47.637Z,96.75
2018-09-12T00:49:47.676Z,96.45
2018-09-12T00:50:47.667Z,97.56
2018-09-12T00:51:47.615Z,97.56
2018-09-12T00:52:47.603Z,97.36
2018-09-12T00:53:47.592Z,96.95
2018-09-12T00:54:47.591Z,96.55
2018-09-12T00:55:47.611Z,96.85
2018-09-12T00:56:47.564Z,97.30
2018-09-12T00:57:47.550Z,97.00
2018-09-12T00:58:47.540Z,97.00
2018-09-12T00:59:47.538Z,97.00
2018-09-12T01:00:47.566Z,96.69
2018-09-12T01:01:47.499Z,96.80
2018-09-12T01:02:47.491Z,96.80
2018-09-12T01:03:47.490Z,96.94
2018-09-12T01:04:47.471Z,97.34
2018-09-12T01:05:47.488Z,96.94
2018-09-12T01:06:47.445Z,97.10
2018-09-12T01:07:47.438Z,97.50
2018-09-12T01:08:47.424Z,97.75
2018-09-12T01:09:47.416Z,96.84
2018-09-12T01:10:47.446Z,96.64
2018-09-12T01:11:47.422Z,97.45
2018-09-12T01:12:47.386Z,97.25
2018-09-12T01:13:47.373Z,97.34
2018-09-12T01:14:47.354Z,97.25
2018-09-12T01:15:47.349Z,97.55
2018-09-12T01:16:47.378Z,97.14
2018-09-12T01:17:47.334Z,97.45
2018-09-12T01:18:47.306Z,97.55
2018-09-12T01:19:47.305Z,97.65
2018-09-12T01:20:47.332Z,97.39
2018-09-12T01:21:47.273Z,97.60
2018-09-12T01:22:47.302Z,97.65
2018-09-12T01:23:47.243Z,98.20
2018-09-12T01:24:47.237Z,98.71
2018-09-12T01:25:47.225Z,98.20
2018-09-12T01:26:47.213Z,98.61
2018-09-12T01:27:47.240Z,98.10
2018-09-12T01:28:47.201Z,98.10
2018-09-12T01:29:47.180Z,98.10
2018-09-12T01:30:47.172Z,98.10
2018-09-12T01:31:47.228Z,97.90
2018-09-12T01:32:47.157Z,97.39
2018-09-12T01:33:47.166Z,97.60
2018-09-12T01:34:47.145Z,97.60
2018-09-12T01:35:47.112Z,98.25
2018-09-12T01:36:47.099Z,97.90
2018-09-12T01:37:47.133Z,97.74
2018-09-12T01:38:47.120Z,98.55
2018-09-12T01:39:47.080Z,98.35
2018-09-12T01:40:47.051Z,98.14
2018-09-12T01:41:47.048Z,98.14
2018-09-12T01:42:47.031Z,98.14
2018-09-12T01:43:47.051Z,98.25
2018-09-12T01:44:47.009Z,98.85
2018-09-12T01:45:47.020Z,98.35
2018-09-12T01:46:46.985Z,98.45
2018-09-12T01:47:46.979Z,98.85
2018-09-12T01:48:47.027Z,98.96
2018-09-12T01:49:46.953Z,98.85
2018-09-12T01:50:46.944Z,98.75
2018-09-12T01:51:46.945Z,99.16
2018-09-12T01:52:46.919Z,99.16
2018-09-12T01:53:46.951Z,99.16
2018-09-12T01:54:46.909Z,99.66
2018-09-12T01:55:46.898Z,99.05
2018-09-12T01:56:46.896Z,99.56
2018-09-12T01:57:46.874Z,99.36
2018-09-12T01:58:46.897Z,99.26
2018-09-12T01:59:46.881Z,99.16
2018-09-12T02:00:46.848Z,99.16
2018-09-12T02:01:46.830Z,98.96
2018-09-12T02:02:46.820Z,99.26
2018-09-12T02:03:46.806Z,99.16
2018-09-12T02:04:46.829Z,99.66
2018-09-12T02:05:46.784Z,99.05
2018-09-12T02:06:46.772Z,99.26
2018-09-12T02:07:46.760Z,99.16
2018-09-12T02:08:46.762Z,99.46
2018-09-12T02:09:46.784Z,99.16
2018-09-12T02:10:46.721Z,98.85
2018-09-12T02:11:46.719Z,99.16
2018-09-12T02:12:46.709Z,99.16
2018-09-12T02:13:46.702Z,99.26
2018-09-12T02:14:46.720Z,99.16
2018-09-12T02:15:46.669Z,99.56
2018-09-12T02:16:46.659Z,98.96
2018-09-12T02:17:46.680Z,99.26
2018-09-12T02:18:46.672Z,99.26
2018-09-12T02:19:46.676Z,99.21
2018-09-12T02:20:46.606Z,99.26
2018-09-12T02:21:46.610Z,99.71
2018-09-12T02:22:46.592Z,98.96
2018-09-12T02:23:46.576Z,99.51
2018-09-12T02:24:46.604Z,99.26
2018-09-12T02:25:46.584Z,98.75
2018-09-12T02:26:46.540Z,99.66
2018-09-12T02:27:46.573Z,99.26
2018-09-12T02:28:46.515Z,99.26
2018-09-12T02:29:46.508Z,99.41
2018-09-12T02:30:46.491Z,99.61
2018-09-12T02:31:46.477Z,99.41
2018-09-12T02:32:46.524Z,99.51
2018-09-12T02:33:46.458Z,99.41
2018-09-12T02:34:46.457Z,99.61
2018-09-12T02:35:46.437Z,99.41
2018-09-12T02:36:46.429Z,99.61
2018-09-12T02:37:46.446Z,99.81
2018-09-12T02:38:46.401Z,99.91
2018-09-12T02:39:46.390Z,99.61
2018-09-12T02:40:46.379Z,99.51
2018-09-12T02:41:46.404Z,99.91
2018-09-12T02:42:46.356Z,99.81
2018-09-12T02:43:46.379Z,99.41
2018-09-12T02:44:46.326Z,99.21
2018-09-12T02:45:46.356Z,99.51
2018-09-12T02:46:46.311Z,99.51
2018-09-12T02:47:46.304Z,99.51
2018-09-12T02:48:46.294Z,99.30
2018-09-12T02:49:46.312Z,99.51
2018-09-12T02:50:46.262Z,99.10
2018-09-12T02:51:46.288Z,99.41
2018-09-12T02:52:46.276Z,99.01
2018-09-12T02:53:46.239Z,99.21
2018-09-12T02:54:46.215Z,99.71
2018-09-12T02:55:46.214Z,99.51
2018-09-12T02:56:46.191Z,99.30
2018-09-12T02:57:46.229Z,99.41
2018-09-12T02:58:46.184Z,99.41
2018-09-12T02:59:46.215Z,99.61
2018-09-12T03:00:46.162Z,99.71
2018-09-12T03:01:46.144Z,99.41
2018-09-12T03:02:46.136Z,99.41
2018-09-12T03:03:46.140Z,99.61
2018-09-12T03:04:46.150Z,99.21
2018-09-12T03:05:46.102Z,99.41
2018-09-12T03:06:46.092Z,99.21
2018-09-12T03:07:46.189Z,98.90
2018-09-12T03:08:46.080Z,99.01
2018-09-12T03:09:46.058Z,98.19
2018-09-12T03:10:46.096Z,98.74
2018-09-12T03:11:46.076Z,97.83
2018-09-12T03:12:46.028Z,97.83
2018-09-12T03:13:46.018Z,97.63
2018-09-12T03:14:46.000Z,96.87
2018-09-12T03:15:45.994Z,97.58
2018-09-12T03:16:46.010Z,96.97
2018-09-12T03:17:45.969Z,96.56
2018-09-12T03:18:45.959Z,97.27
2018-09-12T03:19:45.944Z,96.87
2018-09-12T03:20:46.058Z,97.11
2018-09-12T03:21:45.967Z,96.77
2018-09-12T03:22:45.947Z,96.46
2018-09-12T03:23:45.896Z,96.41
2018-09-12T03:24:45.888Z,96.51
2018-09-12T03:25:45.888Z,96.51
2018-09-12T03:26:45.861Z,97.11
2018-09-12T03:27:45.881Z,97.11
2018-09-12T03:28:45.847Z,96.30
2018-09-12T03:29:45.826Z,96.61
2018-09-12T03:30:45.856Z,97.22
2018-09-12T03:31:45.802Z,96.91
2018-09-12T03:32:45.830Z,96.96
2018-09-12T03:33:45.779Z,96.96
2018-09-12T03:34:45.772Z,96.75
2018-09-12T03:35:45.761Z,96.96
2018-09-12T03:36:45.774Z,96.96
2018-09-12T03:37:45.734Z,96.86
2018-09-12T03:38:45.725Z,96.55
2018-09-12T03:39:45.709Z,96.30
2018-09-12T03:40:45.705Z,95.94
2018-09-12T03:41:45.744Z,96.19
2018-09-12T03:42:45.686Z,95.99
2018-09-12T03:43:45.664Z,96.25
2018-09-12T03:44:45.665Z,96.09
2018-09-12T03:45:45.642Z,95.94
2018-09-12T03:46:45.661Z,96.39
2018-09-12T03:47:45.624Z,95.89
2018-09-12T03:48:45.650Z,95.18
2018-09-12T03:49:45.606Z,94.98
2018-09-12T03:50:45.597Z,95.38
2018-09-12T03:51:45.571Z,95.89
2018-09-12T03:52:45.565Z,95.79
2018-09-12T03:53:45.592Z,95.79
2018-09-12T03:54:45.534Z,96.60
2018-09-12T03:55:45.535Z,96.30
2018-09-12T03:56:45.542Z,96.60
2018-09-12T03:57:45.515Z,95.79
2018-09-12T03:58:45.526Z,95.38
2018-09-12T03:59:45.490Z,96.19
2018-09-12T04:00:45.471Z,96.09
2018-09-12T04:01:45.476Z,96.39
2018-09-12T04:02:45.549Z,96.39
2018-09-12T04:03:45.448Z,95.73
2018-09-12T04:04:45.474Z,95.32
2018-09-12T04:05:45.426Z,96.19
2018-09-12T04:06:45.426Z,96.39
2018-09-12T04:07:45.411Z,96.09
2018-09-12T04:08:45.392Z,96.70
2018-09-12T04:09:45.432Z,96.80
2018-09-12T04:10:45.370Z,96.30
2018-09-12T04:11:45.358Z,95.79
2018-09-12T04:12:45.352Z,95.22
2018-09-12T04:13:45.338Z,96.64
2018-09-12T04:14:45.366Z,95.12
2018-09-12T04:15:45.309Z,95.63
2018-09-12T04:16:45.370Z,96.14
2018-09-12T04:17:45.295Z,96.54
2018-09-12T04:18:45.292Z,96.54
2018-09-12T04:19:45.306Z,96.34
2018-09-12T04:20:45.257Z,95.83
2018-09-12T04:21:45.304Z,96.03
2018-09-12T04:22:45.247Z,96.14
2018-09-12T04:23:45.221Z,96.95
2018-09-12T04:24:45.225Z,96.64
2018-09-12T04:25:45.201Z,96.23
2018-09-12T04:26:45.246Z,96.95
2018-09-12T04:27:45.179Z,96.75
2018-09-12T04:28:45.205Z,96.34
2018-09-12T04:29:45.169Z,96.03
2018-09-12T04:30:45.165Z,96.34
2018-09-12T04:31:45.206Z,96.84
2018-09-12T04:32:45.123Z,96.03
2018-09-12T04:33:45.109Z,96.34
2018-09-12T04:34:45.093Z,96.34
2018-09-12T04:35:45.094Z,96.34
2018-09-12T04:36:45.110Z,96.34
2018-09-12T04:37:45.060Z,96.95
2018-09-12T04:38:45.078Z,96.23
2018-09-12T04:39:45.041Z,95.94
2018-09-12T04:40:45.030Z,96.23
2018-09-12T04:41:45.022Z,96.23
2018-09-12T04:42:45.049Z,96.75
2018-09-12T04:43:44.989Z,96.14
2018-09-12T04:44:44.992Z,96.44
2018-09-12T04:45:44.985Z,96.44
2018-09-12T04:46:44.960Z,96.34
2018-09-12T04:47:44.980Z,96.23
2018-09-12T04:48:44.938Z,96.64
2018-09-12T04:49:44.936Z,96.14
2018-09-12T04:50:44.923Z,96.54
2018-09-12T04:51:44.913Z,95.63
2018-09-12T04:52:44.940Z,95.83
2018-09-12T04:53:44.898Z,96.03
2018-09-12T04:54:44.888Z,95.38
2018-09-12T04:55:44.866Z,95.89
2018-09-12T04:56:44.864Z,95.94
2018-09-12T04:57:44.880Z,96.14
2018-09-12T04:58:44.842Z,95.83
2018-09-12T04:59:44.886Z,95.83
2018-09-12T05:00:44.819Z,95.73
2018-09-12T05:01:44.807Z,95.63
2018-09-12T05:02:44.824Z,96.23
2018-09-12T05:03:44.784Z,96.19
2018-09-12T05:04:44.769Z,96.30
2018-09-12T05:05:44.752Z,96.19
2018-09-12T05:06:44.793Z,96.09
2018-09-12T05:07:44.725Z,95.73
2018-09-12T05:08:44.726Z,96.54
2018-09-12T05:09:44.707Z,96.03
2018-09-12T05:10:44.699Z,96.30
2018-09-12T05:11:44.720Z,95.99
2018-09-12T05:12:44.670Z,96.09
2018-09-12T05:13:44.670Z,96.19
2018-09-12T05:14:44.702Z,96.54
2018-09-12T05:15:44.642Z,96.80
2018-09-12T05:16:44.781Z,96.80
2018-09-12T05:17:44.616Z,96.50
2018-09-12T05:18:44.603Z,96.39
2018-09-12T05:19:44.590Z,96.19
2018-09-12T05:20:44.583Z,96.70
2018-09-12T05:21:44.608Z,95.79
2018-09-12T05:22:44.561Z,95.79
2018-09-12T05:23:44.591Z,96.19
2018-09-12T05:24:44.538Z,96.30
2018-09-12T05:25:44.572Z,95.79
2018-09-12T05:26:44.526Z,95.28
2018-09-12T05:27:44.521Z,95.07
2018-09-12T05:28:44.497Z,94.46
2018-09-12T05:29:44.485Z,95.18
2018-09-12T05:30:44.501Z,95.18
2018-09-12T05:31:44.460Z,95.07
2018-09-12T05:32:44.455Z,94.98
2018-09-12T05:33:44.457Z,95.28
2018-09-12T05:34:44.430Z,94.46
2018-09-12T05:35:44.463Z,93.96
2018-09-12T05:36:44.440Z,93.96
2018-09-12T05:37:44.411Z,94.17
2018-09-12T05:38:44.396Z,94.57
2018-09-12T05:39:44.380Z,93.96
2018-09-12T05:40:44.368Z,93.76
2018-09-12T05:41:44.389Z,93.96
2018-09-12T05:42:44.341Z,92.74
2018-09-12T05:43:44.370Z,93.05
2018-09-12T05:44:44.335Z,92.24
2018-09-12T05:45:44.338Z,92.33
2018-09-12T05:46:44.306Z,93.90
2018-09-12T05:47:44.306Z,93.40
2018-09-12T05:48:44.334Z,94.10
2018-09-12T05:49:44.266Z,93.90
2018-09-12T05:50:44.261Z,93.90
2018-09-12T05:51:44.294Z,94.26
2018-09-12T05:52:44.244Z,93.60
2018-09-12T05:53:44.219Z,94.26
2018-09-12T05:54:44.214Z,93.76
2018-09-12T05:55:44.208Z,94.00
2018-09-12T05:56:44.224Z,94.41
2018-09-12T05:57:44.182Z,94.06
2018-09-12T05:58:44.210Z,93.90
2018-09-12T05:59:44.159Z,94.17
2018-09-12T06:00:44.145Z,94.51
2018-09-12T06:01:44.166Z,93.35
2018-09-12T06:02:44.128Z,93.96
2018-09-12T06:03:44.158Z,93.65
2018-09-12T06:04:44.149Z,94.46
2018-09-12T06:05:44.090Z,93.86
2018-09-12T06:06:44.154Z,94.26
2018-09-12T06:07:44.075Z,94.17
2018-09-12T06:08:44.125Z,94.06
2018-09-12T06:09:44.038Z,94.26
2018-09-12T06:10:44.025Z,94.26
2018-09-12T06:11:44.030Z,94.51
2018-09-12T06:12:44.008Z,94.51
2018-09-12T06:13:44.059Z,94.41
2018-09-12T06:14:43.984Z,95.12
2018-09-12T06:15:43.970Z,95.02
2018-09-12T06:16:43.966Z,95.12
2018-09-12T06:17:43.983Z,94.82
2018-09-12T06:18:43.941Z,95.02
2018-09-12T06:19:43.931Z,95.63
2018-09-12T06:20:43.958Z,95.53
2018-09-12T06:21:43.912Z,95.18
2018-09-12T06:22:43.899Z,95.07
2018-09-12T06:23:43.891Z,95.38
2018-09-12T06:24:43.875Z,95.32
2018-09-12T06:25:43.903Z,95.18
2018-09-12T06:26:43.849Z,94.98
2018-09-12T06:27:43.839Z,94.77
2018-09-12T06:28:43.830Z,94.98
2018-09-12T06:29:43.812Z,95.07
2018-09-12T06:30:43.899Z,94.57
2018-09-12T06:31:43.812Z,94.46
2018-09-12T06:32:43.816Z,94.46
2018-09-12T06:33:43.792Z,94.67
2018-09-12T06:34:43.758Z,95.07
2018-09-12T06:35:43.749Z,95.07
2018-09-12T06:36:43.748Z,94.26
2018-09-12T06:37:43.788Z,93.96
2018-09-12T06:38:43.768Z,93.71
2018-09-12T06:39:43.704Z,94.02
2018-09-12T06:40:43.762Z,94.93
2018-09-12T06:41:43.730Z,94.18
2018-09-12T06:42:43.712Z,94.32
2018-09-12T06:43:43.672Z,94.12
2018-09-12T06:44:43.807Z,93.91
2018-09-12T06:45:43.676Z,93.91
2018-09-12T06:46:43.640Z,93.87
2018-09-12T06:47:43.619Z,93.87
2018-09-12T06:48:43.646Z,93.97
2018-09-12T06:49:43.596Z,93.57
2018-09-12T06:50:43.592Z,93.91
2018-09-12T06:51:43.592Z,93.67
2018-09-12T06:52:43.561Z,93.06
2018-09-12T06:53:43.598Z,93.16
2018-09-12T06:54:43.560Z,93.57
2018-09-12T06:55:43.536Z,92.86
2018-09-12T06:56:43.517Z,93.06
2018-09-12T06:57:43.516Z,92.86
2018-09-12T06:58:43.542Z,92.65
2018-09-12T06:59:43.487Z,93.06
2018-09-12T07:00:43.604Z,92.86
2018-09-12T07:01:43.502Z,93.22
2018-09-12T07:02:43.452Z,92.76
2018-09-12T07:03:43.440Z,92.65
2018-09-12T07:04:43.464Z,92.55
2018-09-12T07:05:43.450Z,92.31
2018-09-12T07:06:43.409Z,91.90
2018-09-12T07:07:43.432Z,92.82
2018-09-12T07:08:43.392Z,90.95
2018-09-12T07:09:43.372Z,91.46
2018-09-12T07:10:43.364Z,90.54
2018-09-12T07:11:43.382Z,91.05
2018-09-12T07:12:43.345Z,91.25
2018-09-12T07:13:43.315Z,91.15
2018-09-12T07:14:43.351Z,90.64
2018-09-12T07:15:43.303Z,90.84
2018-09-12T07:16:43.279Z,90.24
2018-09-12T07:17:43.283Z,90.24
2018-09-12T07:18:43.264Z,90.54
2018-09-12T07:19:43.286Z,89.73
2018-09-12T07:20:43.241Z,89.83
2018-09-12T07:21:43.234Z,89.63
2018-09-12T07:22:43.215Z,90.34
2018-09-12T07:23:43.205Z,90.18
2018-09-12T07:24:43.276Z,90.03
2018-09-12T07:25:43.189Z,89.83
2018-09-12T07:26:43.169Z,90.24
2018-09-12T07:27:43.228Z,89.89
2018-09-12T07:28:43.149Z,89.69
2018-09-12T07:29:43.173Z,88.88
2018-09-12T07:30:43.135Z,88.74
2018-09-12T07:31:43.116Z,88.13
2018-09-12T07:32:43.107Z,87.73
2018-09-12T07:33:43.092Z,87.73
2018-09-12T07:34:43.121Z,87.93
2018-09-12T07:35:43.067Z,87.82
2018-09-12T07:36:43.061Z,87.79
2018-09-12T07:37:43.051Z,87.28
2018-09-12T07:38:43.040Z,87.54
2018-09-12T07:39:43.055Z,87.04
2018-09-12T07:40:43.015Z,86.63
2018-09-12T07:41:43.053Z,86.93
2018-09-12T07:42:42.999Z,86.19
2018-09-12T07:43:42.979Z,85.24
2018-09-12T07:44:43.015Z,83.92
2018-09-12T07:45:42.966Z,85.28
2018-09-12T07:46:42.962Z,85.78
2018-09-12T07:47:42.958Z,85.82
2018-09-12T07:48:42.932Z,85.88
2018-09-12T07:49:42.966Z,86.22
2018-09-12T07:50:42.942Z,86.33
2018-09-12T07:51:42.901Z,86.57
2018-09-12T07:52:42.894Z,87.04
2018-09-12T07:53:42.878Z,86.63
2018-09-12T07:54:42.864Z,87.18
2018-09-12T07:55:42.896Z,86.87
2018-09-12T07:56:42.865Z,87.22
2018-09-12T07:57:42.876Z,87.32
2018-09-12T07:58:42.820Z,86.98
2018-09-12T07:59:42.815Z,87.48
2018-09-12T08:00:42.839Z,86.57
2018-09-12T08:01:42.799Z,86.71
2018-09-12T08:02:42.805Z,87.02
2018-09-12T08:03:42.765Z,87.02
2018-09-12T08:04:42.755Z,86.71
2018-09-12T08:05:42.776Z,87.22
2018-09-12T08:06:42.732Z,88.43
2018-09-12T08:07:42.739Z,88.02
2018-09-12T08:08:42.711Z,87.82
2018-09-12T08:09:42.703Z,88.33
2018-09-12T08:10:42.725Z,88.33
2018-09-12T08:11:42.710Z,88.33
2018-09-12T08:12:42.667Z,88.33
2018-09-12T08:13:42.658Z,88.43
2018-09-12T08:14:42.647Z,87.73
2018-09-12T08:15:42.938Z,87.32
2018-09-12T08:16:42.652Z,87.97
2018-09-12T08:17:42.612Z,88.43
2018-09-12T08:18:42.607Z,88.13
2018-09-12T08:19:42.583Z,88.53
2018-09-12T08:20:42.566Z,88.33
2018-09-12T08:21:42.591Z,88.53
2018-09-12T08:22:42.550Z,87.82
2018-09-12T08:23:42.532Z,87.52
2018-09-12T08:24:42.567Z,87.32
2018-09-12T08:25:42.520Z,86.91
2018-09-12T08:26:42.557Z,87.32
2018-09-12T08:27:42.497Z,87.08
2018-09-12T08:28:42.485Z,87.18
2018-09-12T08:29:42.508Z,86.67
2018-09-12T08:30:42.461Z,86.22
2018-09-12T08:31:42.480Z,85.42
2018-09-12T08:32:42.438Z,85.52
2018-09-12T08:33:42.430Z,86.13
2018-09-12T08:34:42.454Z,85.52
2018-09-12T08:35:42.394Z,84.91
2018-09-12T08:36:42.444Z,84.71
2018-09-12T08:37:42.384Z,85.11
2018-09-12T08:38:42.362Z,85.11
2018-09-12T08:39:42.357Z,84.67
2018-09-12T08:40:42.341Z,83.19
2018-09-12T08:41:42.366Z,83.15
2018-09-12T08:42:42.387Z,83.60
2018-09-12T08:43:42.308Z,84.41
2018-09-12T08:44:42.300Z,83.50
2018-09-12T08:45:42.305Z,83.66
2018-09-12T08:46:42.320Z,82.95
2018-09-12T08:47:42.279Z,82.85
2018-09-12T08:48:42.289Z,82.65
2018-09-12T08:49:42.248Z,82.75
2018-09-12T08:50:42.246Z,83.46
2018-09-12T08:51:42.266Z,83.26
2018-09-12T08:52:42.222Z,83.66
2018-09-12T08:53:42.216Z,83.36
2018-09-12T08:54:42.230Z,83.26
2018-09-12T08:55:42.184Z,84.27
2018-09-12T08:56:42.244Z,83.46
2018-09-12T08:57:42.160Z,83.82
2018-09-12T08:58:42.155Z,83.32
2018-09-12T08:59:42.176Z,83.12
2018-09-12T09:00:42.126Z,82.91
2018-09-12T09:01:42.276Z,82.78
2018-09-12T09:02:42.152Z,81.20
2018-09-12T09:03:42.100Z,80.73
2018-09-12T09:04:42.094Z,81.60
2018-09-12T09:05:42.067Z,81.20
2018-09-12T09:06:42.061Z,80.93
2018-09-12T09:07:42.089Z,80.49
2018-09-12T09:08:42.040Z,81.30
2018-09-12T09:09:42.026Z,82.35
2018-09-12T09:10:42.024Z,82.31
2018-09-12T09:11:41.999Z,81.54
2018-09-12T09:12:42.017Z,80.73
2018-09-12T09:13:41.979Z,80.69
2018-09-12T09:14:41.999Z,81.23
2018-09-12T09:15:41.990Z,80.73
2018-09-12T09:16:41.943Z,80.99
2018-09-12T09:17:41.935Z,81.20
2018-09-12T09:18:41.926Z,80.76
2018-09-12T09:19:41.913Z,79.64
2018-09-12T09:20:41.946Z,79.85
2018-09-12T09:21:41.898Z,79.34
2018-09-12T09:22:41.884Z,78.30
2018-09-12T09:23:41.910Z,77.15
2018-09-12T09:24:41.864Z,76.95
2018-09-12T09:25:41.891Z,76.81
2018-09-12T09:26:41.842Z,76.17
2018-09-12T09:27:41.824Z,74.58
2018-09-12T09:28:41.820Z,74.58
2018-09-12T09:29:41.804Z,73.95
2018-09-12T09:30:41.832Z,75.63
2018-09-12T09:31:41.784Z,75.83
2018-09-12T09:32:41.792Z,75.50
2018-09-12T09:33:41.770Z,76.61
2018-09-12T09:34:41.748Z,77.62
2018-09-12T09:35:42.151Z,75.70
2018-09-12T09:36:41.728Z,73.92
2018-09-12T09:37:41.720Z,73.82
2018-09-12T09:38:41.713Z,74.02
2018-09-12T09:39:41.703Z,74.62
2018-09-12T09:40:41.724Z,73.61
2018-09-12T09:41:41.670Z,72.57
2018-09-12T09:42:41.686Z,72.20
2018-09-12T09:43:41.648Z,71.60
2018-09-12T09:44:41.650Z,73.65
2018-09-12T09:45:41.686Z,73.25
2018-09-12T09:46:41.620Z,73.25
2018-09-12T09:47:41.602Z,73.45
2018-09-12T09:48:41.596Z,73.48
2018-09-12T09:49:41.586Z,73.68
2018-09-12T09:50:41.611Z,73.58
2018-09-12T09:51:41.563Z,73.68
2018-09-12T09:52:41.550Z,73.82
2018-09-12T09:53:41.535Z,74.08
2018-09-12T09:54:41.579Z,73.28
2018-09-12T09:55:41.553Z,73.58
2018-09-12T09:56:41.499Z,73.88
2018-09-12T09:57:41.488Z,74.49
2018-09-12T09:58:41.479Z,74.49
2018-09-12T09:59:41.457Z,75.70
2018-09-12T10:00:41.486Z,75.10
2018-09-12T10:01:41.485Z,75.70
2018-09-12T10:02:41.427Z,76.00
2018-09-12T10:03:41.421Z,75.60
2018-09-12T10:04:41.401Z,75.80
2018-09-12T10:05:41.403Z,74.08
2018-09-12T10:06:41.417Z,74.22
2018-09-12T10:07:41.392Z,74.49
2018-09-12T10:08:41.395Z,74.90
2018-09-12T10:09:41.349Z,75.70
2018-09-12T10:10:41.375Z,74.59
2018-09-12T10:11:41.342Z,74.08
2018-09-12T10:12:41.321Z,74.79
2018-09-12T10:13:41.321Z,74.29
2018-09-12T10:14:41.300Z,75.60
2018-09-12T10:15:41.349Z,75.40
2018-09-12T10:16:41.271Z,75.60
2018-09-12T10:17:41.257Z,75.80
2018-09-12T10:18:41.253Z,75.43
2018-09-12T10:19:41.251Z,75.54
2018-09-12T10:20:41.281Z,75.43
2018-09-12T10:21:41.216Z,75.74
2018-09-12T10:22:41.209Z,75.54
2018-09-12T10:23:41.192Z,75.54
2018-09-12T10:24:41.180Z,75.50
2018-09-12T10:25:41.216Z,75.43
2018-09-12T10:26:41.171Z,74.39
2018-09-12T10:27:41.156Z,75.40
2018-09-12T10:28:41.153Z,75.10
2018-09-12T10:29:41.170Z,73.99
2018-09-12T10:30:41.143Z,74.02
2018-09-12T10:31:41.169Z,74.59
2018-09-12T10:32:41.139Z,74.05
2018-09-12T10:33:41.095Z,73.85
2018-09-12T10:34:41.089Z,74.55
2018-09-12T10:35:41.071Z,74.66
2018-09-12T10:36:41.098Z,73.95
2018-09-12T10:37:41.085Z,73.75
2018-09-12T10:38:41.035Z,73.85
2018-09-12T10:39:41.061Z,73.45
2018-09-12T10:40:41.013Z,74.46
2018-09-12T10:41:41.011Z,74.55
2018-09-12T10:42:41.016Z,74.29
2018-09-12T10:43:40.977Z,74.52
2018-09-12T10:44:40.963Z,74.73
2018-09-12T10:45:40.959Z,75.34
2018-09-12T10:46:40.943Z,75.57
2018-09-12T10:47:40.967Z,76.78
2018-09-12T10:48:40.927Z,76.38
2018-09-12T10:49:40.911Z,76.72
2018-09-12T10:50:40.900Z,77.32
2018-09-12T10:51:40.892Z,77.83
2018-09-12T10:52:40.909Z,77.83
2018-09-12T10:53:40.876Z,77.83
2018-09-12T10:54:40.853Z,77.79
2018-09-12T10:55:40.847Z,78.39
2018-09-12T10:56:40.827Z,77.69
2018-09-12T10:57:40.846Z,77.93
2018-09-12T10:58:40.807Z,77.69
2018-09-12T10:59:40.825Z,78.70
2018-09-12T11:00:40.784Z,77.69
2018-09-12T11:01:40.762Z,77.59
2018-09-12T11:02:40.750Z,77.59
2018-09-12T11:03:40.751Z,78.39
2018-09-12T11:04:40.787Z,78.03
2018-09-12T11:05:40.724Z,78.23
2018-09-12T11:06:40.717Z,78.63
2018-09-12T11:07:40.704Z,78.33
2018-09-12T11:08:40.698Z,77.93
2018-09-12T11:09:40.715Z,77.12
2018-09-12T11:10:40.701Z,76.51
2018-09-12T11:11:40.649Z,77.26
2018-09-12T11:12:40.643Z,77.86
2018-09-12T11:13:40.635Z,78.71
2018-09-12T11:14:40.656Z,79.52
2018-09-12T11:15:40.615Z,80.87
2018-09-12T11:16:40.599Z,80.87
2018-09-12T11:17:40.591Z,82.28
2018-09-12T11:18:40.622Z,82.49
2018-09-12T11:19:40.614Z,83.19
2018-09-12T11:20:40.561Z,83.56
2018-09-12T11:21:40.550Z,83.15
2018-09-12T11:22:40.534Z,82.71
2018-09-12T11:23:40.524Z,81.80
2018-09-12T11:24:40.556Z,81.50
2018-09-12T11:25:40.504Z,80.92
2018-09-12T11:26:40.491Z,80.82
2018-09-12T11:27:40.481Z,80.82
2018-09-12T11:28:40.557Z,81.26
2018-09-12T11:29:40.509Z,82.27
2018-09-12T11:30:40.549Z,82.67
2018-09-12T11:31:40.447Z,82.61
2018-09-12T11:32:40.435Z,83.46
2018-09-12T11:33:40.429Z,83.86
2018-09-12T11:34:41.301Z,85.11
2018-09-12T11:35:40.416Z,85.72
2018-09-12T11:36:40.383Z,86.63
2018-09-12T11:37:40.621Z,87.13
2018-09-12T11:38:40.623Z,87.95
2018-09-12T11:39:40.389Z,88.45
2018-09-12T11:40:40.422Z,88.29
2018-09-12T11:41:40.616Z,88.39
2018-09-12T11:42:40.417Z,89.00
2018-09-12T11:43:40.394Z,88.94
2018-09-12T11:44:40.351Z,87.82
2018-09-12T11:45:40.713Z,87.82
2018-09-12T11:46:40.735Z,86.91
2018-09-12T11:47:40.326Z,86.91
2018-09-12T11:48:40.380Z,87.32
2018-09-12T11:49:40.355Z,87.08
2018-09-12T11:50:40.239Z,87.48
2018-09-12T11:51:40.833Z,86.98
2018-09-12T11:52:40.630Z,87.28
2018-09-12T11:53:40.622Z,86.82
2018-09-12T11:54:40.186Z,86.67
2018-09-12T11:55:40.599Z,86.57
2018-09-12T11:56:40.531Z,86.77
2018-09-12T11:57:40.589Z,86.73
2018-09-12T11:58:40.383Z,86.83
2018-09-12T11:59:40.262Z,86.73
2018-09-12T12:00:40.127Z,86.43
2018-09-12T12:01:40.136Z,86.73
2018-09-12T12:02:40.086Z,86.83
2018-09-12T12:03:40.072Z,85.72
2018-09-12T12:04:40.065Z,87.04
2018-09-12T12:05:40.052Z,86.83
2018-09-12T12:06:40.075Z,86.69
2018-09-12T12:07:40.030Z,86.19
2018-09-12T12:08:40.013Z,85.94
2018-09-12T12:09:40.010Z,85.17
2018-09-12T12:10:39.998Z,85.44
2018-09-12T12:11:40.026Z,84.33
2018-09-12T12:12:39.979Z,84.09
2018-09-12T12:13:39.969Z,82.73
2018-09-12T12:14:39.958Z,83.10
2018-09-12T12:15:39.948Z,81.15
2018-09-12T12:16:40.028Z,79.83
2018-09-12T12:17:39.912Z,81.21
2018-09-12T12:18:39.908Z,80.33
2018-09-12T12:19:39.901Z,81.08
2018-09-12T12:20:39.880Z,79.97
2018-09-12T12:21:39.921Z,79.10
2018-09-12T12:22:39.864Z,79.77
2018-09-12T12:23:39.845Z,79.67
2018-09-12T12:24:39.847Z,80.01
2018-09-12T12:25:39.825Z,78.70
2018-09-12T12:26:39.876Z,79.10
2018-09-12T12:27:39.856Z,79.16
2018-09-12T12:28:39.797Z,78.36
2018-09-12T12:29:39.780Z,78.56
2018-09-12T12:30:39.773Z,78.26
2018-09-12T12:31:39.803Z,77.11
2018-09-12T12:32:39.753Z,77.42
2018-09-12T12:33:39.747Z,77.62
2018-09-12T12:34:39.779Z,77.72
2018-09-12T12:35:39.723Z,76.81
2018-09-12T12:36:39.729Z,77.92
2018-09-12T12:37:39.697Z,76.75
2018-09-12T12:38:39.687Z,77.31
2018-09-12T12:39:39.736Z,77.51
2018-09-12T12:40:39.704Z,76.81
2018-09-12T12:41:39.661Z,76.14
2018-09-12T12:42:39.653Z,77.35
2018-09-12T12:43:39.658Z,76.68
2018-09-12T12:44:39.624Z,78.19
2018-09-12T12:45:39.647Z,77.89
2018-09-12T12:46:39.604Z,77.73
2018-09-12T12:47:39.584Z,78.74
2018-09-12T12:48:39.589Z,78.63
2018-09-12T12:49:39.634Z,78.84
2018-09-12T12:50:39.552Z,79.17
2018-09-12T12:51:39.558Z,80.19
2018-09-12T12:52:39.527Z,80.08